createdAt,value
2022-08-27T00:01:24.771Z,4.13
2022-08-27T00:06:26.892Z,4.07
2022-08-27T00:11:29.607Z,6.40
2022-08-27T00:16:31.346Z,5.15
2022-08-27T00:21:33.129Z,4.63
2022-08-27T00:26:37.377Z,4.60
2022-08-27T00:31:42.051Z,5.18
2022-08-27T00:36:45.328Z,4.97
2022-08-27T00:41:48.319Z,5.00
2022-08-27T00:46:53.592Z,4.97
2022-08-27T00:52:02.962Z,4.32
2022-08-27T00:57:05.183Z,4.47
2022-08-27T01:02:18.944Z,4.45
2022-08-27T01:07:22.161Z,4.25
2022-08-27T01:12:24.181Z,5.22
2022-08-27T01:17:26.582Z,4.93
2022-08-27T01:22:35.901Z,5.40
2022-08-27T01:27:38.903Z,4.70
2022-08-27T01:32:40.822Z,3.80
2022-08-27T01:37:45.394Z,3.83
2022-08-27T01:42:53.220Z,3.17
2022-08-27T01:47:54.939Z,2.83
2022-08-27T01:52:56.631Z,3.10
2022-08-27T01:57:58.424Z,2.95
2022-08-27T02:03:00.221Z,2.60
2022-08-27T02:08:02.312Z,2.45
2022-08-27T02:13:06.874Z,2.90
2022-08-27T02:18:10.606Z,2.55
2022-08-27T02:23:12.985Z,2.90
2022-08-27T02:28:14.662Z,3.38
2022-08-27T02:33:16.610Z,2.80
2022-08-27T02:38:18.375Z,3.10
2022-08-27T02:43:25.093Z,3.25
2022-08-27T02:48:27.798Z,3.20
2022-08-27T02:53:29.480Z,3.22
2022-08-27T02:58:31.330Z,2.97
2022-08-27T03:03:33.127Z,2.92
2022-08-27T03:08:38.010Z,3.20
2022-08-27T03:13:54.955Z,2.85
2022-08-27T03:18:56.567Z,2.72
2022-08-27T03:23:59.338Z,3.00
2022-08-27T03:29:10.967Z,2.22
2022-08-27T03:34:13.207Z,2.38
2022-08-27T03:39:14.892Z,2.17
2022-08-27T03:44:21.223Z,2.30
2022-08-27T03:49:24.022Z,1.70
2022-08-27T03:54:25.702Z,2.20
2022-08-27T03:59:27.424Z,1.88
2022-08-27T04:04:29.892Z,1.75
2022-08-27T04:09:31.640Z,1.90
2022-08-27T04:14:33.849Z,2.15
2022-08-27T04:19:35.464Z,2.63
2022-08-27T04:24:39.199Z,2.60
2022-08-27T04:29:40.883Z,2.28
2022-08-27T04:34:42.699Z,2.00
2022-08-27T04:39:48.572Z,2.00
2022-08-27T04:44:53.369Z,2.25
2022-08-27T04:49:54.978Z,2.67
2022-08-27T04:54:57.286Z,2.80
2022-08-27T04:59:59.415Z,1.98
2022-08-27T05:05:01.061Z,2.08
2022-08-27T05:10:02.726Z,2.30
2022-08-27T05:15:04.743Z,2.25
2022-08-27T05:20:07.371Z,1.85
2022-08-27T05:25:11.155Z,2.60
2022-08-27T05:30:13.134Z,2.10
2022-08-27T05:35:15.807Z,2.33
2022-08-27T05:40:17.604Z,2.30
2022-08-27T05:45:19.468Z,2.15
2022-08-27T05:50:23.666Z,2.03
2022-08-27T05:55:25.435Z,2.05
2022-08-27T06:00:45.827Z,1.80
2022-08-27T06:05:47.991Z,1.90
2022-08-27T06:10:51.397Z,1.58
2022-08-27T06:16:10.924Z,1.48
2022-08-27T06:21:13.852Z,2.10
2022-08-27T06:26:18.953Z,1.88
2022-08-27T06:31:26.731Z,1.70
2022-08-27T06:36:29.574Z,2.35
2022-08-27T06:41:31.402Z,2.20
2022-08-27T06:46:33.086Z,1.65
2022-08-27T06:51:36.877Z,1.48
2022-08-27T06:56:39.617Z,1.33
2022-08-27T07:01:43.900Z,1.45
2022-08-27T07:06:45.681Z,1.52
2022-08-27T07:11:47.697Z,1.40
2022-08-27T07:16:50.862Z,1.77
2022-08-27T07:21:54.164Z,1.88
2022-08-27T07:26:55.863Z,1.30
2022-08-27T07:31:57.499Z,1.33
2022-08-27T07:36:59.142Z,1.13
2022-08-27T07:42:19.546Z,1.83
2022-08-27T07:47:21.312Z,1.50
2022-08-27T07:52:26.458Z,1.38
2022-08-27T07:57:28.341Z,1.27
2022-08-27T08:02:31.440Z,1.33
2022-08-27T08:07:34.525Z,1.40
2022-08-27T08:12:37.864Z,1.70
2022-08-27T08:17:39.979Z,1.30
2022-08-27T08:22:41.931Z,1.52
2022-08-27T08:27:43.802Z,1.33
2022-08-27T08:32:45.475Z,1.80
2022-08-27T08:37:47.146Z,1.60
2022-08-27T08:42:54.563Z,1.33
2022-08-27T08:48:12.827Z,1.80
2022-08-27T08:53:31.272Z,2.22
2022-08-27T08:58:43.610Z,1.60
2022-08-27T09:03:55.178Z,1.88
2022-08-27T09:09:02.226Z,2.72
2022-08-27T09:14:37.317Z,2.30
2022-08-27T09:19:39.140Z,2.10
2022-08-27T09:24:50.022Z,2.22
2022-08-27T09:29:54.196Z,3.15
2022-08-27T09:35:02.747Z,3.25
2022-08-27T09:40:13.375Z,2.70
2022-08-27T09:45:24.785Z,2.65
2022-08-27T09:50:43.760Z,2.67
2022-08-27T09:55:49.544Z,3.20
2022-08-27T10:01:07.545Z,3.08
2022-08-27T10:06:10.723Z,2.58
2022-08-27T10:11:22.984Z,2.10
2022-08-27T10:16:46.504Z,2.60
2022-08-27T10:22:08.563Z,4.40
2022-08-27T10:27:19.575Z,2.10
2022-08-27T10:32:43.770Z,2.20
2022-08-27T10:38:21.323Z,2.75
2022-08-27T10:48:50.466Z,2.35
2022-08-27T10:54:18.202Z,1.63
2022-08-27T10:59:37.592Z,1.80
2022-08-27T11:04:46.600Z,1.60
2022-08-27T11:09:56.978Z,1.80
2022-08-27T11:15:04.890Z,2.00
2022-08-27T11:20:18.845Z,1.60
2022-08-27T11:25:41.991Z,1.77
2022-08-27T11:30:59.512Z,1.63
2022-08-27T11:36:20.363Z,2.60
2022-08-27T11:41:24.991Z,1.65
2022-08-27T11:46:29.191Z,1.65
2022-08-27T11:51:36.973Z,1.83
2022-08-27T11:56:42.774Z,1.77
2022-08-27T12:01:45.195Z,1.83
2022-08-27T12:07:03.086Z,2.15
2022-08-27T12:12:13.259Z,1.95
2022-08-27T12:17:27.840Z,1.70
2022-08-27T12:23:08.317Z,1.90
2022-08-27T12:28:10.259Z,3.42
2022-08-27T12:33:27.958Z,1.80
2022-08-27T12:38:32.667Z,1.80
2022-08-27T12:43:38.162Z,2.10
2022-08-27T12:48:45.814Z,1.65
2022-08-27T12:54:06.194Z,2.03
2022-08-27T12:59:24.733Z,1.83
2022-08-27T13:04:30.922Z,2.05
2022-08-27T13:09:35.937Z,1.33
2022-08-27T13:14:40.826Z,1.85
2022-08-27T13:19:52.970Z,1.50
2022-08-27T13:24:56.206Z,1.80
2022-08-27T13:30:05.839Z,1.85
2022-08-27T13:35:08.500Z,2.38
2022-08-27T13:40:11.019Z,2.10
2022-08-27T13:45:12.839Z,1.55
2022-08-27T13:50:22.985Z,1.52
2022-08-27T13:55:25.139Z,6.28
2022-08-27T14:00:31.698Z,1.98
2022-08-27T14:10:42.337Z,1.95
2022-08-27T14:15:47.085Z,1.30
2022-08-27T14:20:48.766Z,1.30
2022-08-27T14:25:51.966Z,1.40
2022-08-27T14:30:53.833Z,1.33
2022-08-27T14:35:55.724Z,1.70
2022-08-27T14:40:58.487Z,2.00
2022-08-27T14:46:01.101Z,1.25
2022-08-27T14:51:12.242Z,1.40
2022-08-27T14:56:13.874Z,1.50
2022-08-27T15:01:18.036Z,1.50
2022-08-27T15:06:22.378Z,1.45
2022-08-27T15:11:29.194Z,1.50
2022-08-27T15:16:38.358Z,1.60
2022-08-27T15:21:40.773Z,1.30
2022-08-27T15:26:42.570Z,1.13
2022-08-27T15:31:44.832Z,1.70
2022-08-27T15:36:46.484Z,1.60
2022-08-27T15:42:05.639Z,1.65
2022-08-27T15:47:08.184Z,1.58
2022-08-27T15:52:12.405Z,1.60
2022-08-27T15:57:20.369Z,1.60
2022-08-27T16:02:24.046Z,1.70
2022-08-27T16:07:25.947Z,1.98
2022-08-27T16:12:27.807Z,1.88
2022-08-27T16:17:29.560Z,1.30
2022-08-27T16:22:31.233Z,1.52
2022-08-27T16:27:33.336Z,1.13
2022-08-27T16:32:34.986Z,1.30
2022-08-27T16:37:36.677Z,1.30
2022-08-27T16:42:47.267Z,1.52
2022-08-27T16:48:08.357Z,1.73
2022-08-27T16:53:15.436Z,1.60
2022-08-27T16:58:22.216Z,1.20
2022-08-27T17:03:25.427Z,1.77
2022-08-27T17:08:27.575Z,1.35
2022-08-27T17:13:32.717Z,1.58
2022-08-27T17:18:35.158Z,1.50
2022-08-27T17:23:40.402Z,1.40
2022-08-27T17:28:43.363Z,1.33
2022-08-27T17:33:50.362Z,1.50
2022-08-27T17:38:52.180Z,1.27
2022-08-27T17:43:57.660Z,1.70
2022-08-27T17:48:59.652Z,1.20
2022-08-27T17:54:01.697Z,1.48
2022-08-27T17:59:03.391Z,1.25
2022-08-27T18:04:06.080Z,1.00
2022-08-27T18:09:08.635Z,1.10
2022-08-27T18:14:11.508Z,1.05
2022-08-27T18:19:13.215Z,1.52
2022-08-27T18:24:15.972Z,1.13
2022-08-27T18:29:18.356Z,1.25
2022-08-27T18:34:21.217Z,0.98
2022-08-27T18:39:25.628Z,1.02
2022-08-27T18:44:28.003Z,1.25
2022-08-27T18:49:29.796Z,1.20
2022-08-27T18:54:31.947Z,1.15
2022-08-27T18:59:33.671Z,1.10
2022-08-27T19:04:35.673Z,1.15
2022-08-27T19:09:37.338Z,1.30
2022-08-27T19:14:39.314Z,1.13
2022-08-27T19:19:41.152Z,1.00
2022-08-27T19:24:43.616Z,1.35
2022-08-27T19:29:45.912Z,1.17
2022-08-27T19:34:47.844Z,1.48
2022-08-27T19:39:49.795Z,1.38
2022-08-27T19:44:51.478Z,1.30
2022-08-27T19:49:54.120Z,1.20
2022-08-27T19:55:13.128Z,1.55
2022-08-27T20:00:20.357Z,1.65
2022-08-27T20:05:22.719Z,1.77
2022-08-27T20:10:36.079Z,1.42
2022-08-27T20:15:39.258Z,1.80
2022-08-27T20:20:42.470Z,1.85
2022-08-27T20:25:44.720Z,1.70
2022-08-27T20:30:48.767Z,2.05
2022-08-27T20:35:50.669Z,2.10
2022-08-27T20:40:52.311Z,1.95
2022-08-27T20:45:54.386Z,1.98
2022-08-27T20:50:56.213Z,1.98
2022-08-27T20:55:57.946Z,2.17
2022-08-27T21:01:00.159Z,2.25
2022-08-27T21:06:01.891Z,2.17
2022-08-27T21:11:12.855Z,2.38
2022-08-27T21:16:14.603Z,2.22
2022-08-27T21:21:16.247Z,2.25
2022-08-27T21:26:18.007Z,2.17
2022-08-27T21:31:19.703Z,2.50
2022-08-27T21:36:21.726Z,2.45
2022-08-27T21:41:23.704Z,2.08
2022-08-27T21:46:25.535Z,2.22
2022-08-27T21:51:27.250Z,2.38
2022-08-27T21:56:28.873Z,2.60
2022-08-27T22:01:31.156Z,2.83
2022-08-27T22:06:33.132Z,2.15
2022-08-27T22:11:35.184Z,2.63
2022-08-27T22:16:36.878Z,2.80
2022-08-27T22:21:38.938Z,2.75
2022-08-27T22:26:40.762Z,2.60
2022-08-27T22:31:42.456Z,3.38
2022-08-27T22:36:44.108Z,2.78
2022-08-27T22:41:48.749Z,2.67
2022-08-27T22:46:51.862Z,2.65
2022-08-27T22:51:53.604Z,2.85
2022-08-27T22:56:55.242Z,2.90
2022-08-27T23:01:59.334Z,2.97
2022-08-27T23:07:01.834Z,2.53
2022-08-27T23:12:04.390Z,3.53
2022-08-27T23:17:06.005Z,2.80
2022-08-27T23:22:08.667Z,2.50
2022-08-27T23:27:28.905Z,3.00
2022-08-27T23:32:30.991Z,2.95
2022-08-27T23:37:32.858Z,2.50
2022-08-27T23:42:37.042Z,3.15
2022-08-27T23:47:38.662Z,2.90
2022-08-27T23:52:40.679Z,2.60
2022-08-27T23:57:42.367Z,3.20
